sensor_id;sensor_type;location;lat;lon;timestamp;P1;durP1;ratioP1;P2;durP2;ratioP2
46318;SDS011;32042;50.916;2.926;2023-03-14T00:01:22;7.77;;;1.87;;
46318;SDS011;32042;50.916;2.926;2023-03-14T00:03:48;3.13;;;1.13;;
46318;SDS011;32042;50.916;2.926;2023-03-14T00:06:14;4.90;;;1.60;;
46318;SDS011;32042;50.916;2.926;2023-03-14T00:08:40;6.53;;;2.30;;
46318;SDS011;32042;50.916;2.926;2023-03-14T00:11:10;4.87;;;1.67;;
46318;SDS011;32042;50.916;2.926;2023-03-14T00:13:38;4.70;;;1.30;;
46318;SDS011;32042;50.916;2.926;2023-03-14T00:16:05;11.93;;;2.17;;
46318;SDS011;32042;50.916;2.926;2023-03-14T00:18:33;6.40;;;1.67;;
46318;SDS011;32042;50.916;2.926;2023-03-14T00:20:59;8.47;;;1.90;;
46318;SDS011;32042;50.916;2.926;2023-03-14T00:23:26;8.10;;;1.90;;
46318;SDS011;32042;50.916;2.926;2023-03-14T00:25:53;7.53;;;1.73;;
46318;SDS011;32042;50.916;2.926;2023-03-14T00:28:19;7.70;;;2.27;;
46318;SDS011;32042;50.916;2.926;2023-03-14T00:30:44;9.43;;;2.53;;
46318;SDS011;32042;50.916;2.926;2023-03-14T00:33:10;8.50;;;1.77;;
46318;SDS011;32042;50.916;2.926;2023-03-14T00:35:35;8.70;;;2.10;;
46318;SDS011;32042;50.916;2.926;2023-03-14T00:38:01;7.67;;;2.07;;
46318;SDS011;32042;50.916;2.926;2023-03-14T00:40:27;14.87;;;2.13;;
46318;SDS011;32042;50.916;2.926;2023-03-14T00:42:52;6.33;;;1.63;;
46318;SDS011;32042;50.916;2.926;2023-03-14T00:45:18;13.30;;;2.30;;
46318;SDS011;32042;50.916;2.926;2023-03-14T00:47:44;7.97;;;1.93;;
46318;SDS011;32042;50.916;2.926;2023-03-14T00:50:10;7.43;;;1.90;;
46318;SDS011;32042;50.916;2.926;2023-03-14T00:52:36;7.70;;;1.90;;
46318;SDS011;32042;50.916;2.926;2023-03-14T00:55:02;9.17;;;1.90;;
46318;SDS011;32042;50.916;2.926;2023-03-14T00:57:29;5.63;;;1.97;;
46318;SDS011;32042;50.916;2.926;2023-03-14T00:59:54;8.73;;;2.40;;
46318;SDS011;32042;50.916;2.926;2023-03-14T01:02:20;8.43;;;1.70;;
46318;SDS011;32042;50.916;2.926;2023-03-14T01:04:49;9.07;;;1.97;;
46318;SDS011;32042;50.916;2.926;2023-03-14T01:07:15;7.30;;;1.60;;
46318;SDS011;32042;50.916;2.926;2023-03-14T01:09:41;6.60;;;1.63;;
46318;SDS011;32042;50.916;2.926;2023-03-14T01:12:06;5.73;;;1.80;;
46318;SDS011;32042;50.916;2.926;2023-03-14T01:14:32;5.93;;;1.70;;
46318;SDS011;32042;50.916;2.926;2023-03-14T01:16:58;8.23;;;2.10;;
46318;SDS011;32042;50.916;2.926;2023-03-14T01:19:26;7.27;;;1.30;;
46318;SDS011;32042;50.916;2.926;2023-03-14T01:21:53;7.07;;;1.33;;
46318;SDS011;32042;50.916;2.926;2023-03-14T01:24:19;6.97;;;1.77;;
46318;SDS011;32042;50.916;2.926;2023-03-14T01:26:45;4.67;;;1.27;;
46318;SDS011;32042;50.916;2.926;2023-03-14T01:29:11;4.93;;;1.40;;
46318;SDS011;32042;50.916;2.926;2023-03-14T01:31:37;3.03;;;1.00;;
46318;SDS011;32042;50.916;2.926;2023-03-14T01:34:03;4.97;;;1.37;;
46318;SDS011;32042;50.916;2.926;2023-03-14T01:36:29;6.57;;;1.83;;
46318;SDS011;32042;50.916;2.926;2023-03-14T01:38:54;3.80;;;1.10;;
46318;SDS011;32042;50.916;2.926;2023-03-14T01:41:22;4.07;;;1.10;;
46318;SDS011;32042;50.916;2.926;2023-03-14T01:43:49;4.17;;;1.40;;
46318;SDS011;32042;50.916;2.926;2023-03-14T01:51:36;9.97;;;1.50;;
46318;SDS011;32042;50.916;2.926;2023-03-14T01:54:50;3.87;;;1.10;;
46318;SDS011;32042;50.916;2.926;2023-03-14T01:59:38;1.80;;;0.57;;
46318;SDS011;32042;50.916;2.926;2023-03-14T02:02:07;3.63;;;0.60;;
46318;SDS011;32042;50.916;2.926;2023-03-14T02:04:37;1.83;;;0.50;;
46318;SDS011;32042;50.916;2.926;2023-03-14T02:07:10;3.50;;;0.50;;
46318;SDS011;32042;50.916;2.926;2023-03-14T02:09:38;1.60;;;0.50;;
46318;SDS011;32042;50.916;2.926;2023-03-14T02:12:05;4.40;;;0.60;;
46318;SDS011;32042;50.916;2.926;2023-03-14T02:14:33;3.73;;;0.53;;
46318;SDS011;32042;50.916;2.926;2023-03-14T02:17:01;2.50;;;0.60;;
46318;SDS011;32042;50.916;2.926;2023-03-14T02:22:31;2.03;;;0.40;;
46318;SDS011;32042;50.916;2.926;2023-03-14T02:25:00;2.87;;;0.60;;
46318;SDS011;32042;50.916;2.926;2023-03-14T02:27:33;1.13;;;0.70;;
46318;SDS011;32042;50.916;2.926;2023-03-14T02:30:00;1.27;;;0.40;;
46318;SDS011;32042;50.916;2.926;2023-03-14T02:32:27;2.13;;;0.77;;
46318;SDS011;32042;50.916;2.926;2023-03-14T02:34:57;1.67;;;0.50;;
46318;SDS011;32042;50.916;2.926;2023-03-14T02:37:27;3.87;;;0.63;;
46318;SDS011;32042;50.916;2.926;2023-03-14T02:40:04;4.07;;;0.87;;
46318;SDS011;32042;50.916;2.926;2023-03-14T02:42:31;2.07;;;0.80;;
46318;SDS011;32042;50.916;2.926;2023-03-14T02:47:34;2.57;;;0.80;;
46318;SDS011;32042;50.916;2.926;2023-03-14T02:50:12;1.20;;;0.97;;
46318;SDS011;32042;50.916;2.926;2023-03-14T02:52:42;2.03;;;0.80;;
46318;SDS011;32042;50.916;2.926;2023-03-14T02:55:09;3.77;;;0.80;;
46318;SDS011;32042;50.916;2.926;2023-03-14T02:57:35;2.57;;;1.10;;
46318;SDS011;32042;50.916;2.926;2023-03-14T03:00:01;3.47;;;1.10;;
46318;SDS011;32042;50.916;2.926;2023-03-14T03:02:31;2.60;;;0.90;;
46318;SDS011;32042;50.916;2.926;2023-03-14T03:04:57;3.53;;;0.87;;
46318;SDS011;32042;50.916;2.926;2023-03-14T03:07:23;3.47;;;1.30;;
46318;SDS011;32042;50.916;2.926;2023-03-14T03:09:49;1.80;;;1.07;;
46318;SDS011;32042;50.916;2.926;2023-03-14T03:12:15;4.47;;;1.60;;
46318;SDS011;32042;50.916;2.926;2023-03-14T03:14:41;1.97;;;1.00;;
46318;SDS011;32042;50.916;2.926;2023-03-14T03:17:06;2.17;;;1.10;;
46318;SDS011;32042;50.916;2.926;2023-03-14T03:19:33;1.53;;;0.80;;
46318;SDS011;32042;50.916;2.926;2023-03-14T03:21:59;4.90;;;1.00;;
46318;SDS011;32042;50.916;2.926;2023-03-14T03:24:25;3.13;;;0.93;;
46318;SDS011;32042;50.916;2.926;2023-03-14T03:26:51;0.87;;;0.57;;
46318;SDS011;32042;50.916;2.926;2023-03-14T03:29:17;3.13;;;1.20;;
46318;SDS011;32042;50.916;2.926;2023-03-14T03:31:42;2.13;;;0.80;;
46318;SDS011;32042;50.916;2.926;2023-03-14T03:34:10;3.70;;;0.80;;
46318;SDS011;32042;50.916;2.926;2023-03-14T03:36:36;2.40;;;0.83;;
46318;SDS011;32042;50.916;2.926;2023-03-14T03:39:02;1.63;;;0.70;;
46318;SDS011;32042;50.916;2.926;2023-03-14T03:41:28;1.63;;;0.70;;
46318;SDS011;32042;50.916;2.926;2023-03-14T03:43:55;2.10;;;0.70;;
46318;SDS011;32042;50.916;2.926;2023-03-14T03:46:21;1.80;;;0.70;;
46318;SDS011;32042;50.916;2.926;2023-03-14T03:48:47;1.50;;;1.00;;
46318;SDS011;32042;50.916;2.926;2023-03-14T03:51:13;1.53;;;1.10;;
46318;SDS011;32042;50.916;2.926;2023-03-14T03:53:41;1.60;;;1.00;;
46318;SDS011;32042;50.916;2.926;2023-03-14T03:56:07;1.87;;;1.00;;
46318;SDS011;32042;50.916;2.926;2023-03-14T03:58:34;2.57;;;1.03;;
46318;SDS011;32042;50.916;2.926;2023-03-14T04:01:00;1.37;;;0.70;;
46318;SDS011;32042;50.916;2.926;2023-03-14T04:03:25;1.93;;;0.70;;
46318;SDS011;32042;50.916;2.926;2023-03-14T04:06:01;1.63;;;0.70;;
46318;SDS011;32042;50.916;2.926;2023-03-14T04:08:29;1.13;;;0.77;;
46318;SDS011;32042;50.916;2.926;2023-03-14T04:10:59;1.93;;;0.93;;
46318;SDS011;32042;50.916;2.926;2023-03-14T04:13:26;2.57;;;0.90;;
46318;SDS011;32042;50.916;2.926;2023-03-14T04:15:52;2.80;;;0.80;;
46318;SDS011;32042;50.916;2.926;2023-03-14T04:18:18;3.93;;;1.00;;
46318;SDS011;32042;50.916;2.926;2023-03-14T04:20:44;3.00;;;1.17;;
46318;SDS011;32042;50.916;2.926;2023-03-14T04:23:10;1.97;;;1.17;;
46318;SDS011;32042;50.916;2.926;2023-03-14T04:25:36;3.20;;;1.20;;
46318;SDS011;32042;50.916;2.926;2023-03-14T04:28:02;1.90;;;1.00;;
46318;SDS011;32042;50.916;2.926;2023-03-14T04:30:29;3.67;;;1.33;;
46318;SDS011;32042;50.916;2.926;2023-03-14T04:32:55;3.80;;;1.50;;
46318;SDS011;32042;50.916;2.926;2023-03-14T04:35:20;3.33;;;1.37;;
46318;SDS011;32042;50.916;2.926;2023-03-14T04:37:46;4.23;;;1.50;;
46318;SDS011;32042;50.916;2.926;2023-03-14T04:40:14;4.87;;;1.77;;
46318;SDS011;32042;50.916;2.926;2023-03-14T04:42:40;6.93;;;1.70;;
46318;SDS011;32042;50.916;2.926;2023-03-14T04:45:06;6.13;;;1.80;;
46318;SDS011;32042;50.916;2.926;2023-03-14T04:47:32;3.70;;;1.90;;
46318;SDS011;32042;50.916;2.926;2023-03-14T04:49:58;4.93;;;1.97;;
46318;SDS011;32042;50.916;2.926;2023-03-14T04:52:24;6.87;;;2.67;;
46318;SDS011;32042;50.916;2.926;2023-03-14T04:54:50;5.77;;;2.20;;
46318;SDS011;32042;50.916;2.926;2023-03-14T04:57:15;2.60;;;1.13;;
46318;SDS011;32042;50.916;2.926;2023-03-14T04:59:41;1.20;;;0.60;;
46318;SDS011;32042;50.916;2.926;2023-03-14T05:02:07;3.60;;;0.90;;
46318;SDS011;32042;50.916;2.926;2023-03-14T05:04:32;3.10;;;0.93;;
46318;SDS011;32042;50.916;2.926;2023-03-14T05:06:59;5.53;;;0.90;;
46318;SDS011;32042;50.916;2.926;2023-03-14T05:09:25;5.83;;;1.23;;
46318;SDS011;32042;50.916;2.926;2023-03-14T05:11:50;5.10;;;1.33;;
46318;SDS011;32042;50.916;2.926;2023-03-14T05:14:16;3.07;;;1.20;;
46318;SDS011;32042;50.916;2.926;2023-03-14T05:16:42;7.77;;;1.70;;
46318;SDS011;32042;50.916;2.926;2023-03-14T05:19:08;6.10;;;1.97;;
46318;SDS011;32042;50.916;2.926;2023-03-14T05:21:35;6.90;;;3.70;;
46318;SDS011;32042;50.916;2.926;2023-03-14T05:24:00;10.57;;;5.83;;
46318;SDS011;32042;50.916;2.926;2023-03-14T05:26:26;9.53;;;1.83;;
46318;SDS011;32042;50.916;2.926;2023-03-14T05:28:52;3.80;;;1.40;;
46318;SDS011;32042;50.916;2.926;2023-03-14T05:31:17;5.43;;;1.60;;
46318;SDS011;32042;50.916;2.926;2023-03-14T05:33:43;6.07;;;1.70;;
46318;SDS011;32042;50.916;2.926;2023-03-14T05:36:09;4.97;;;1.23;;
46318;SDS011;32042;50.916;2.926;2023-03-14T05:38:36;5.53;;;1.70;;
46318;SDS011;32042;50.916;2.926;2023-03-14T05:41:01;5.80;;;2.10;;
46318;SDS011;32042;50.916;2.926;2023-03-14T05:43:27;6.37;;;1.80;;
46318;SDS011;32042;50.916;2.926;2023-03-14T05:45:52;6.57;;;1.83;;
46318;SDS011;32042;50.916;2.926;2023-03-14T05:48:18;4.60;;;1.50;;
46318;SDS011;32042;50.916;2.926;2023-03-14T05:50:44;5.80;;;1.40;;
46318;SDS011;32042;50.916;2.926;2023-03-14T05:53:10;4.73;;;1.50;;
46318;SDS011;32042;50.916;2.926;2023-03-14T05:55:35;7.53;;;1.83;;
46318;SDS011;32042;50.916;2.926;2023-03-14T05:58:01;6.00;;;1.57;;
46318;SDS011;32042;50.916;2.926;2023-03-14T06:00:27;4.73;;;1.80;;
46318;SDS011;32042;50.916;2.926;2023-03-14T06:02:52;5.17;;;1.93;;
46318;SDS011;32042;50.916;2.926;2023-03-14T06:05:18;8.63;;;2.40;;
46318;SDS011;32042;50.916;2.926;2023-03-14T06:07:44;7.67;;;2.70;;
46318;SDS011;32042;50.916;2.926;2023-03-14T06:10:09;6.10;;;2.30;;
46318;SDS011;32042;50.916;2.926;2023-03-14T06:12:35;9.80;;;3.47;;
46318;SDS011;32042;50.916;2.926;2023-03-14T06:15:01;6.07;;;2.77;;
46318;SDS011;32042;50.916;2.926;2023-03-14T06:17:27;8.30;;;2.97;;
46318;SDS011;32042;50.916;2.926;2023-03-14T06:19:52;7.27;;;2.50;;
46318;SDS011;32042;50.916;2.926;2023-03-14T06:22:18;8.43;;;2.00;;
46318;SDS011;32042;50.916;2.926;2023-03-14T06:24:44;10.13;;;2.30;;
46318;SDS011;32042;50.916;2.926;2023-03-14T06:27:10;4.73;;;1.87;;
46318;SDS011;32042;50.916;2.926;2023-03-14T06:29:35;8.10;;;2.07;;
46318;SDS011;32042;50.916;2.926;2023-03-14T06:32:01;5.80;;;1.80;;
46318;SDS011;32042;50.916;2.926;2023-03-14T06:34:27;9.67;;;2.03;;
46318;SDS011;32042;50.916;2.926;2023-03-14T06:36:53;8.30;;;1.63;;
46318;SDS011;32042;50.916;2.926;2023-03-14T06:39:18;4.37;;;1.40;;
46318;SDS011;32042;50.916;2.926;2023-03-14T06:41:45;7.23;;;1.97;;
46318;SDS011;32042;50.916;2.926;2023-03-14T06:44:10;7.07;;;1.67;;
46318;SDS011;32042;50.916;2.926;2023-03-14T06:46:36;6.30;;;1.50;;
46318;SDS011;32042;50.916;2.926;2023-03-14T06:49:02;8.07;;;1.50;;
46318;SDS011;32042;50.916;2.926;2023-03-14T06:51:27;9.70;;;1.93;;
46318;SDS011;32042;50.916;2.926;2023-03-14T06:53:53;8.93;;;3.20;;
46318;SDS011;32042;50.916;2.926;2023-03-14T06:56:19;6.03;;;1.77;;
46318;SDS011;32042;50.916;2.926;2023-03-14T06:58:44;7.67;;;3.07;;
46318;SDS011;32042;50.916;2.926;2023-03-14T07:01:21;6.17;;;2.87;;
46318;SDS011;32042;50.916;2.926;2023-03-14T07:03:49;9.13;;;1.70;;
46318;SDS011;32042;50.916;2.926;2023-03-14T07:06:14;8.20;;;1.70;;
46318;SDS011;32042;50.916;2.926;2023-03-14T07:08:40;6.80;;;1.60;;
46318;SDS011;32042;50.916;2.926;2023-03-14T07:11:06;9.63;;;2.13;;
46318;SDS011;32042;50.916;2.926;2023-03-14T07:13:32;7.17;;;1.87;;
46318;SDS011;32042;50.916;2.926;2023-03-14T07:15:58;5.40;;;1.37;;
46318;SDS011;32042;50.916;2.926;2023-03-14T07:18:24;6.90;;;1.60;;
46318;SDS011;32042;50.916;2.926;2023-03-14T07:20:49;5.00;;;1.53;;
46318;SDS011;32042;50.916;2.926;2023-03-14T07:23:15;9.70;;;1.60;;
46318;SDS011;32042;50.916;2.926;2023-03-14T07:25:41;7.13;;;1.80;;
46318;SDS011;32042;50.916;2.926;2023-03-14T07:28:06;7.57;;;1.90;;
46318;SDS011;32042;50.916;2.926;2023-03-14T07:30:32;5.23;;;1.90;;
46318;SDS011;32042;50.916;2.926;2023-03-14T07:32:58;5.53;;;1.67;;
46318;SDS011;32042;50.916;2.926;2023-03-14T07:35:23;4.43;;;1.47;;
46318;SDS011;32042;50.916;2.926;2023-03-14T07:37:49;12.23;;;1.97;;
46318;SDS011;32042;50.916;2.926;2023-03-14T07:40:14;4.30;;;1.30;;
46318;SDS011;32042;50.916;2.926;2023-03-14T07:42:41;7.50;;;1.40;;
46318;SDS011;32042;50.916;2.926;2023-03-14T07:45:08;4.97;;;1.30;;
46318;SDS011;32042;50.916;2.926;2023-03-14T07:47:35;4.33;;;1.10;;
46318;SDS011;32042;50.916;2.926;2023-03-14T07:50:01;2.33;;;1.17;;
46318;SDS011;32042;50.916;2.926;2023-03-14T07:52:27;7.67;;;1.37;;
46318;SDS011;32042;50.916;2.926;2023-03-14T07:54:53;4.83;;;1.37;;
46318;SDS011;32042;50.916;2.926;2023-03-14T07:57:18;4.00;;;1.30;;
46318;SDS011;32042;50.916;2.926;2023-03-14T07:59:44;5.70;;;1.40;;
46318;SDS011;32042;50.916;2.926;2023-03-14T08:02:10;2.47;;;0.83;;
46318;SDS011;32042;50.916;2.926;2023-03-14T08:04:37;4.27;;;1.37;;
46318;SDS011;32042;50.916;2.926;2023-03-14T08:07:03;10.23;;;1.30;;
46318;SDS011;32042;50.916;2.926;2023-03-14T08:09:29;9.43;;;1.50;;
46318;SDS011;32042;50.916;2.926;2023-03-14T08:11:55;5.40;;;2.00;;
46318;SDS011;32042;50.916;2.926;2023-03-14T08:14:20;8.67;;;3.93;;
46318;SDS011;32042;50.916;2.926;2023-03-14T08:16:48;8.93;;;1.80;;
46318;SDS011;32042;50.916;2.926;2023-03-14T08:19:15;18.10;;;4.80;;
46318;SDS011;32042;50.916;2.926;2023-03-14T08:21:40;13.40;;;6.23;;
46318;SDS011;32042;50.916;2.926;2023-03-14T08:24:06;4.47;;;2.00;;
46318;SDS011;32042;50.916;2.926;2023-03-14T08:26:32;7.70;;;1.83;;
46318;SDS011;32042;50.916;2.926;2023-03-14T08:28:58;5.83;;;2.53;;
46318;SDS011;32042;50.916;2.926;2023-03-14T08:31:23;27.90;;;10.23;;
46318;SDS011;32042;50.916;2.926;2023-03-14T08:33:49;8.97;;;2.17;;
46318;SDS011;32042;50.916;2.926;2023-03-14T08:36:17;8.30;;;1.80;;
46318;SDS011;32042;50.916;2.926;2023-03-14T08:38:43;7.13;;;1.50;;
46318;SDS011;32042;50.916;2.926;2023-03-14T08:41:09;4.30;;;1.30;;
46318;SDS011;32042;50.916;2.926;2023-03-14T08:43:35;3.20;;;1.03;;
46318;SDS011;32042;50.916;2.926;2023-03-14T08:46:01;6.97;;;1.67;;
46318;SDS011;32042;50.916;2.926;2023-03-14T08:48:28;9.97;;;2.17;;
46318;SDS011;32042;50.916;2.926;2023-03-14T08:50:56;3.77;;;1.10;;
46318;SDS011;32042;50.916;2.926;2023-03-14T08:53:28;5.73;;;1.07;;
46318;SDS011;32042;50.916;2.926;2023-03-14T08:55:54;5.67;;;1.00;;
46318;SDS011;32042;50.916;2.926;2023-03-14T08:58:20;6.00;;;1.10;;
46318;SDS011;32042;50.916;2.926;2023-03-14T09:00:47;3.57;;;1.20;;
46318;SDS011;32042;50.916;2.926;2023-03-14T09:03:13;3.70;;;1.50;;
46318;SDS011;32042;50.916;2.926;2023-03-14T09:05:39;4.40;;;1.20;;
46318;SDS011;32042;50.916;2.926;2023-03-14T09:08:05;5.73;;;1.17;;
46318;SDS011;32042;50.916;2.926;2023-03-14T09:10:31;3.00;;;1.33;;
46318;SDS011;32042;50.916;2.926;2023-03-14T09:12:56;7.07;;;1.20;;
46318;SDS011;32042;50.916;2.926;2023-03-14T09:15:23;4.87;;;1.23;;
46318;SDS011;32042;50.916;2.926;2023-03-14T09:17:49;5.20;;;1.10;;
46318;SDS011;32042;50.916;2.926;2023-03-14T09:20:15;5.10;;;1.30;;
46318;SDS011;32042;50.916;2.926;2023-03-14T09:22:41;7.90;;;1.37;;
46318;SDS011;32042;50.916;2.926;2023-03-14T09:25:06;2.57;;;1.00;;
46318;SDS011;32042;50.916;2.926;2023-03-14T09:27:33;4.83;;;1.50;;
46318;SDS011;32042;50.916;2.926;2023-03-14T09:29:58;3.20;;;1.30;;
46318;SDS011;32042;50.916;2.926;2023-03-14T09:32:24;5.97;;;1.70;;
46318;SDS011;32042;50.916;2.926;2023-03-14T09:34:50;4.17;;;1.40;;
46318;SDS011;32042;50.916;2.926;2023-03-14T09:37:15;3.63;;;1.40;;
46318;SDS011;32042;50.916;2.926;2023-03-14T09:39:42;6.50;;;1.40;;
46318;SDS011;32042;50.916;2.926;2023-03-14T09:42:10;2.90;;;1.07;;
46318;SDS011;32042;50.916;2.926;2023-03-14T09:44:40;6.90;;;1.63;;
46318;SDS011;32042;50.916;2.926;2023-03-14T09:47:15;7.97;;;1.30;;
46318;SDS011;32042;50.916;2.926;2023-03-14T09:49:45;6.23;;;1.30;;
46318;SDS011;32042;50.916;2.926;2023-03-14T09:52:19;3.10;;;1.27;;
46318;SDS011;32042;50.916;2.926;2023-03-14T09:54:52;7.57;;;1.70;;
46318;SDS011;32042;50.916;2.926;2023-03-14T09:57:24;6.33;;;1.50;;
46318;SDS011;32042;50.916;2.926;2023-03-14T09:59:51;3.90;;;1.50;;
46318;SDS011;32042;50.916;2.926;2023-03-14T10:02:24;5.77;;;1.30;;
46318;SDS011;32042;50.916;2.926;2023-03-14T10:04:53;4.07;;;1.30;;
46318;SDS011;32042;50.916;2.926;2023-03-14T10:07:25;4.80;;;1.47;;
46318;SDS011;32042;50.916;2.926;2023-03-14T10:09:54;5.67;;;1.70;;
46318;SDS011;32042;50.916;2.926;2023-03-14T10:12:21;11.53;;;2.27;;
46318;SDS011;32042;50.916;2.926;2023-03-14T10:15:02;5.03;;;1.17;;
46318;SDS011;32042;50.916;2.926;2023-03-14T10:17:40;8.57;;;1.83;;
46318;SDS011;32042;50.916;2.926;2023-03-14T10:20:14;7.33;;;1.67;;
46318;SDS011;32042;50.916;2.926;2023-03-14T10:22:57;5.63;;;1.20;;
46318;SDS011;32042;50.916;2.926;2023-03-14T10:25:44;7.80;;;1.60;;
46318;SDS011;32042;50.916;2.926;2023-03-14T10:30:50;5.53;;;1.43;;
46318;SDS011;32042;50.916;2.926;2023-03-14T10:33:20;3.03;;;1.33;;
46318;SDS011;32042;50.916;2.926;2023-03-14T10:35:55;3.97;;;1.93;;
46318;SDS011;32042;50.916;2.926;2023-03-14T10:38:27;2.47;;;1.30;;
46318;SDS011;32042;50.916;2.926;2023-03-14T10:41:01;1.73;;;1.33;;
46318;SDS011;32042;50.916;2.926;2023-03-14T10:43:31;5.50;;;1.90;;
46318;SDS011;32042;50.916;2.926;2023-03-14T10:45:59;4.70;;;1.73;;
46318;SDS011;32042;50.916;2.926;2023-03-14T10:48:46;4.90;;;1.33;;
46318;SDS011;32042;50.916;2.926;2023-03-14T10:54:03;3.53;;;1.33;;
46318;SDS011;32042;50.916;2.926;2023-03-14T10:56:44;1.47;;;1.00;;
46318;SDS011;32042;50.916;2.926;2023-03-14T10:59:20;2.20;;;0.70;;
46318;SDS011;32042;50.916;2.926;2023-03-14T11:01:48;1.67;;;1.00;;
46318;SDS011;32042;50.916;2.926;2023-03-14T11:09:50;1.07;;;0.60;;
46318;SDS011;32042;50.916;2.926;2023-03-14T11:23:17;3.93;;;3.30;;
46318;SDS011;32042;50.916;2.926;2023-03-14T11:31:20;2.17;;;2.00;;
46318;SDS011;32042;50.916;2.926;2023-03-14T11:36:25;2.63;;;0.97;;
46318;SDS011;32042;50.916;2.926;2023-03-14T11:39:16;1.40;;;1.00;;
46318;SDS011;32042;50.916;2.926;2023-03-14T11:41:47;2.13;;;1.60;;
46318;SDS011;32042;50.916;2.926;2023-03-14T11:57:41;1.37;;;0.70;;
46318;SDS011;32042;50.916;2.926;2023-03-14T12:13:40;2.93;;;0.90;;
46318;SDS011;32042;50.916;2.926;2023-03-14T12:18:48;3.27;;;1.70;;
46318;SDS011;32042;50.916;2.926;2023-03-14T12:21:18;4.27;;;1.80;;
46318;SDS011;32042;50.916;2.926;2023-03-14T12:23:45;9.17;;;1.50;;
46318;SDS011;32042;50.916;2.926;2023-03-14T12:26:21;8.77;;;1.30;;
46318;SDS011;32042;50.916;2.926;2023-03-14T12:28:51;4.80;;;1.63;;
46318;SDS011;32042;50.916;2.926;2023-03-14T12:31:37;4.87;;;1.23;;
46318;SDS011;32042;50.916;2.926;2023-03-14T12:44:48;13.17;;;2.70;;
46318;SDS011;32042;50.916;2.926;2023-03-14T12:49:53;14.97;;;2.37;;
46318;SDS011;32042;50.916;2.926;2023-03-14T12:52:28;10.07;;;2.20;;
46318;SDS011;32042;50.916;2.926;2023-03-14T12:58:08;13.13;;;2.70;;
46318;SDS011;32042;50.916;2.926;2023-03-14T13:00:56;10.77;;;2.80;;
46318;SDS011;32042;50.916;2.926;2023-03-14T13:03:26;11.20;;;2.43;;
46318;SDS011;32042;50.916;2.926;2023-03-14T13:06:09;6.77;;;1.03;;
46318;SDS011;32042;50.916;2.926;2023-03-14T13:08:38;10.80;;;1.80;;
46318;SDS011;32042;50.916;2.926;2023-03-14T13:11:10;11.87;;;2.93;;
46318;SDS011;32042;50.916;2.926;2023-03-14T13:13:45;10.07;;;1.93;;
46318;SDS011;32042;50.916;2.926;2023-03-14T13:16:15;10.70;;;2.07;;
46318;SDS011;32042;50.916;2.926;2023-03-14T13:18:44;9.37;;;1.57;;
46318;SDS011;32042;50.916;2.926;2023-03-14T13:21:21;6.73;;;1.93;;
46318;SDS011;32042;50.916;2.926;2023-03-14T13:26:22;10.77;;;2.50;;
46318;SDS011;32042;50.916;2.926;2023-03-14T13:28:50;25.60;;;9.27;;
46318;SDS011;32042;50.916;2.926;2023-03-14T13:31:21;16.60;;;6.30;;
46318;SDS011;32042;50.916;2.926;2023-03-14T13:33:58;8.53;;;2.07;;
46318;SDS011;32042;50.916;2.926;2023-03-14T13:36:26;18.47;;;3.00;;
46318;SDS011;32042;50.916;2.926;2023-03-14T13:38:56;11.27;;;2.60;;
46318;SDS011;32042;50.916;2.926;2023-03-14T13:41:24;11.47;;;2.10;;
46318;SDS011;32042;50.916;2.926;2023-03-14T13:43:50;11.73;;;1.40;;
46318;SDS011;32042;50.916;2.926;2023-03-14T13:46:20;2.50;;;0.80;;
46318;SDS011;32042;50.916;2.926;2023-03-14T13:48:48;9.13;;;1.20;;
46318;SDS011;32042;50.916;2.926;2023-03-14T13:51:17;1.37;;;0.70;;
46318;SDS011;32042;50.916;2.926;2023-03-14T13:53:50;2.77;;;0.60;;
46318;SDS011;32042;50.916;2.926;2023-03-14T13:56:18;1.50;;;0.70;;
46318;SDS011;32042;50.916;2.926;2023-03-14T13:58:45;7.83;;;1.40;;
46318;SDS011;32042;50.916;2.926;2023-03-14T14:03:56;2.10;;;0.73;;
46318;SDS011;32042;50.916;2.926;2023-03-14T14:08:56;4.73;;;1.00;;
46318;SDS011;32042;50.916;2.926;2023-03-14T14:11:37;2.27;;;0.70;;
46318;SDS011;32042;50.916;2.926;2023-03-14T14:14:09;1.13;;;0.70;;
46318;SDS011;32042;50.916;2.926;2023-03-14T14:16:39;9.43;;;1.37;;
46318;SDS011;32042;50.916;2.926;2023-03-14T14:19:06;4.60;;;0.60;;
46318;SDS011;32042;50.916;2.926;2023-03-14T14:21:32;4.53;;;1.20;;
46318;SDS011;32042;50.916;2.926;2023-03-14T14:23:58;7.43;;;4.93;;
46318;SDS011;32042;50.916;2.926;2023-03-14T14:26:25;15.37;;;10.83;;
46318;SDS011;32042;50.916;2.926;2023-03-14T14:28:59;32.60;;;11.43;;
46318;SDS011;32042;50.916;2.926;2023-03-14T14:31:29;54.33;;;24.77;;
46318;SDS011;32042;50.916;2.926;2023-03-14T14:34:00;16.10;;;10.63;;
46318;SDS011;32042;50.916;2.926;2023-03-14T14:36:29;24.17;;;16.63;;
46318;SDS011;32042;50.916;2.926;2023-03-14T14:39:12;20.67;;;14.07;;
46318;SDS011;32042;50.916;2.926;2023-03-14T14:41:42;22.70;;;15.47;;
46318;SDS011;32042;50.916;2.926;2023-03-14T14:44:12;20.03;;;13.77;;
46318;SDS011;32042;50.916;2.926;2023-03-14T14:46:41;27.03;;;18.37;;
46318;SDS011;32042;50.916;2.926;2023-03-14T14:49:12;15.87;;;12.23;;
46318;SDS011;32042;50.916;2.926;2023-03-14T14:51:41;10.87;;;7.73;;
46318;SDS011;32042;50.916;2.926;2023-03-14T14:54:10;10.47;;;7.17;;
46318;SDS011;32042;50.916;2.926;2023-03-14T14:56:44;6.33;;;5.57;;
46318;SDS011;32042;50.916;2.926;2023-03-14T14:59:25;4.60;;;3.47;;
46318;SDS011;32042;50.916;2.926;2023-03-14T15:02:02;11.87;;;8.70;;
46318;SDS011;32042;50.916;2.926;2023-03-14T15:04:30;14.90;;;9.73;;
46318;SDS011;32042;50.916;2.926;2023-03-14T15:06:56;4.50;;;2.37;;
46318;SDS011;32042;50.916;2.926;2023-03-14T15:09:22;4.33;;;2.10;;
46318;SDS011;32042;50.916;2.926;2023-03-14T15:11:49;8.07;;;2.78;;
46318;SDS011;32042;50.916;2.926;2023-03-14T15:14:15;6.73;;;2.00;;
46318;SDS011;32042;50.916;2.926;2023-03-14T15:16:41;12.67;;;10.90;;
46318;SDS011;32042;50.916;2.926;2023-03-14T15:19:23;6.33;;;2.00;;
46318;SDS011;32042;50.916;2.926;2023-03-14T15:21:51;4.67;;;1.20;;
46318;SDS011;32042;50.916;2.926;2023-03-14T15:24:18;6.60;;;4.00;;
46318;SDS011;32042;50.916;2.926;2023-03-14T15:26:43;6.50;;;4.97;;
46318;SDS011;32042;50.916;2.926;2023-03-14T15:29:10;7.77;;;1.77;;
46318;SDS011;32042;50.916;2.926;2023-03-14T15:31:37;12.53;;;9.30;;
46318;SDS011;32042;50.916;2.926;2023-03-14T15:34:04;6.23;;;2.03;;
46318;SDS011;32042;50.916;2.926;2023-03-14T15:36:31;4.63;;;2.00;;
46318;SDS011;32042;50.916;2.926;2023-03-14T15:38:58;13.73;;;6.70;;
46318;SDS011;32042;50.916;2.926;2023-03-14T15:41:25;6.67;;;2.33;;
46318;SDS011;32042;50.916;2.926;2023-03-14T15:43:51;6.40;;;2.63;;
46318;SDS011;32042;50.916;2.926;2023-03-14T15:46:17;15.37;;;8.47;;
46318;SDS011;32042;50.916;2.926;2023-03-14T15:48:46;17.40;;;6.87;;
46318;SDS011;32042;50.916;2.926;2023-03-14T15:51:12;30.43;;;13.93;;
46318;SDS011;32042;50.916;2.926;2023-03-14T15:53:38;54.90;;;26.13;;
46318;SDS011;32042;50.916;2.926;2023-03-14T15:56:05;13.27;;;2.20;;
46318;SDS011;32042;50.916;2.926;2023-03-14T15:58:33;15.70;;;6.87;;
46318;SDS011;32042;50.916;2.926;2023-03-14T16:01:02;7.33;;;3.57;;
46318;SDS011;32042;50.916;2.926;2023-03-14T16:03:28;10.50;;;4.63;;
46318;SDS011;32042;50.916;2.926;2023-03-14T16:05:54;12.40;;;2.97;;
46318;SDS011;32042;50.916;2.926;2023-03-14T16:08:21;7.47;;;1.90;;
46318;SDS011;32042;50.916;2.926;2023-03-14T16:10:47;8.33;;;3.00;;
46318;SDS011;32042;50.916;2.926;2023-03-14T16:13:13;9.60;;;2.33;;
46318;SDS011;32042;50.916;2.926;2023-03-14T16:15:39;10.50;;;3.20;;
46318;SDS011;32042;50.916;2.926;2023-03-14T16:18:05;10.53;;;2.10;;
46318;SDS011;32042;50.916;2.926;2023-03-14T16:20:31;12.50;;;3.80;;
46318;SDS011;32042;50.916;2.926;2023-03-14T16:22:57;16.00;;;3.70;;
46318;SDS011;32042;50.916;2.926;2023-03-14T16:25:22;12.77;;;2.93;;
46318;SDS011;32042;50.916;2.926;2023-03-14T16:27:48;15.60;;;3.73;;